Time;durP1;ratioP1;P1;durP2;ratioP2;P2;SDS_P1;SDS_P2;PMS_P1;PMS_P2;Temp;Humidity;BMP_temperature;BMP_pressure;BME280_temperature;BME280_humidity;BME280_pressure;Samples;Min_cycle;Max_cycle;Signal;HPM_P1;HPM_P2
2022/03/11 00:00:58;;;;;;;2.25;1.30;;;5.40;96.80;;;;;;5022439;28;20064;-87
2022/03/11 00:03:23;;;;;;;1.38;0.85;;;5.40;96.30;;;;;;5039126;28;20076;-88
2022/03/11 00:05:51;;;;;;;0.98;0.63;;;5.40;96.60;;;;;;5038156;28;20078;-88
2022/03/11 00:08:16;;;;;;;2.72;2.47;;;5.30;96.90;;;;;;5022631;28;20477;-87
2022/03/11 00:10:42;;;;;;;6.30;1.73;;;5.40;97.10;;;;;;5088588;28;20083;-87
2022/03/11 00:13:08;;;;;;;0.60;0.60;;;5.30;96.80;;;;;;5038890;28;20036;-88
2022/03/11 00:15:34;;;;;;;2.78;1.70;;;5.40;96.90;;;;;;5054831;28;20478;-88
2022/03/11 00:18:00;;;;;;;2.75;1.85;;;5.30;96.40;;;;;;5022260;28;20029;-88
2022/03/11 00:20:26;;;;;;;2.95;1.67;;;5.40;96.80;;;;;;5088629;28;20174;-88
2022/03/11 00:22:52;;;;;;;1.00;0.70;;;5.40;96.30;;;;;;5055438;28;20040;-88
2022/03/11 00:25:19;;;;;;;0.60;0.60;;;5.40;96.30;;;;;;5052753;28;20034;-87
2022/03/11 00:27:46;;;;;;;5.60;3.15;;;5.40;96.60;;;;;;5018945;28;20045;-87
2022/03/11 00:30:12;;;;;;;3.83;2.28;;;5.40;96.30;;;;;;5034832;28;20099;-88
2022/03/11 00:32:38;;;;;;;7.00;3.63;;;5.40;96.40;;;;;;5018710;28;20037;-87
2022/03/11 00:35:08;;;;;;;7.05;2.85;;;5.40;96.00;;;;;;5018618;28;20041;-88
2022/03/11 00:37:34;;;;;;;9.02;3.22;;;5.40;96.60;;;;;;5034296;28;20041;-88
2022/03/11 00:40:00;;;;;;;3.28;1.90;;;5.40;96.20;;;;;;5018322;28;20128;-87
2022/03/11 00:42:27;;;;;;;3.58;1.77;;;5.40;96.50;;;;;;5018903;28;20635;-88
2022/03/11 00:44:52;;;;;;;2.83;1.58;;;5.30;96.80;;;;;;5018439;28;20044;-88
2022/03/11 00:47:18;;;;;;;5.28;3.13;;;5.30;96.70;;;;;;5018141;28;20405;-87
2022/03/11 00:49:44;;;;;;;2.75;2.20;;;5.30;96.20;;;;;;5035271;28;20691;-87
2022/03/11 00:52:10;;;;;;;7.50;4.82;;;5.30;96.20;;;;;;5034912;28;20065;-87
2022/03/11 00:54:35;;;;;;;7.68;3.38;;;5.40;96.10;;;;;;5018613;28;20069;-88
2022/03/11 00:57:01;;;;;;;3.95;2.08;;;5.40;96.20;;;;;;5034982;28;20095;-87
2022/03/11 00:59:27;;;;;;;5.57;2.95;;;5.40;96.10;;;;;;5018542;28;20037;-88
2022/03/11 01:01:52;;;;;;;3.80;2.50;;;5.30;96.50;;;;;;5018265;28;20112;-88
2022/03/11 01:04:18;;;;;;;1.02;0.90;;;5.40;96.50;;;;;;5018736;28;20037;-88
2022/03/11 01:06:43;;;;;;;7.57;3.28;;;5.30;96.50;;;;;;5022292;28;20041;-87
2022/03/11 01:09:09;;;;;;;0.40;0.40;;;5.30;96.40;;;;;;5023590;28;20087;-88
2022/03/11 01:11:34;;;;;;;5.07;2.85;;;5.30;96.50;;;;;;5042299;28;20406;-88
2022/03/11 01:14:00;;;;;;;2.03;1.40;;;5.30;96.40;;;;;;5041791;28;20037;-88
2022/03/11 01:16:27;;;;;;;2.42;1.48;;;5.30;96.60;;;;;;5074604;28;20059;-87
2022/03/11 01:18:53;;;;;;;1.95;1.05;;;5.30;96.80;;;;;;5041657;28;20421;-88
2022/03/11 01:21:18;;;;;;;3.30;1.63;;;5.30;97.00;;;;;;5040960;28;20047;-88
2022/03/11 01:23:44;;;;;;;3.95;2.28;;;5.20;96.70;;;;;;5091394;28;20044;-87
2022/03/11 01:26:11;;;;;;;3.33;2.13;;;5.20;96.90;;;;;;5058170;28;20094;-87
2022/03/11 01:28:39;;;;;;;3.10;1.83;;;5.20;96.80;;;;;;5041557;28;20040;-87
2022/03/11 01:31:05;;;;;;;2.53;1.73;;;5.20;96.60;;;;;;5040925;28;20048;-87
2022/03/11 01:33:30;;;;;;;4.75;3.05;;;5.20;96.90;;;;;;5040687;28;20033;-86
2022/03/11 01:35:56;;;;;;;8.13;3.63;;;5.20;96.70;;;;;;5041151;28;20481;-86
2022/03/11 01:38:21;;;;;;;3.92;2.13;;;5.20;96.60;;;;;;5041509;28;20044;-87
2022/03/11 01:40:47;;;;;;;3.53;2.28;;;5.20;96.80;;;;;;5040834;28;20043;-88
2022/03/11 01:43:14;;;;;;;6.40;2.45;;;5.20;97.00;;;;;;5073797;28;20132;-87
2022/03/11 01:45:40;;;;;;;8.45;4.00;;;5.10;97.20;;;;;;5041025;28;20041;-87
2022/03/11 01:48:06;;;;;;;5.78;3.15;;;5.10;97.00;;;;;;5041128;28;20547;-87
2022/03/11 01:50:31;;;;;;;6.45;3.10;;;5.10;97.30;;;;;;5040910;28;20131;-87
2022/03/11 01:52:57;;;;;;;6.05;3.08;;;5.10;97.30;;;;;;5041026;28;20042;-87
2022/03/11 01:55:23;;;;;;;0.98;0.88;;;5.10;97.50;;;;;;5074417;28;20035;-87
2022/03/11 01:57:49;;;;;;;0.80;0.80;;;5.00;97.80;;;;;;5024006;28;20048;-88
2022/03/11 02:00:14;;;;;;;1.95;1.13;;;4.90;97.90;;;;;;5041092;28;20090;-87
2022/03/11 02:02:40;;;;;;;0.85;0.85;;;4.80;98.20;;;;;;5041057;28;20049;-87
2022/03/11 02:05:06;;;;;;;2.33;1.20;;;4.80;98.50;;;;;;5040609;28;20481;-87
2022/03/11 02:07:32;;;;;;;1.15;0.70;;;4.70;99.00;;;;;;5073907;28;20041;-87
2022/03/11 02:09:58;;;;;;;1.05;0.98;;;4.60;99.00;;;;;;5040711;28;20033;-87
2022/03/11 02:12:32;;;;;;;1.67;1.35;;;4.50;99.20;;;;;;5040661;28;20378;-87
2022/03/11 02:15:00;;;;;;;1.65;0.68;;;4.50;99.30;;;;;;5073637;28;20086;-87
2022/03/11 02:17:25;;;;;;;1.65;1.20;;;4.60;99.60;;;;;;5073563;28;20087;-87
2022/03/11 02:19:51;;;;;;;2.05;1.40;;;4.50;99.70;;;;;;5040218;28;20036;-87
2022/03/11 02:22:19;;;;;;;5.13;3.05;;;4.50;99.70;;;;;;5040441;28;20041;-87
2022/03/11 02:24:45;;;;;;;2.78;2.10;;;4.50;99.30;;;;;;5073597;28;20040;-86
2022/03/11 02:27:10;;;;;;;3.47;1.83;;;4.40;99.90;;;;;;5040142;28;20045;-87
2022/03/11 02:29:37;;;;;;;2.15;1.95;;;4.40;99.90;;;;;;5090545;28;20029;-88
2022/03/11 02:32:03;;;;;;;3.78;2.35;;;4.40;99.90;;;;;;5073592;28;20123;-88
2022/03/11 02:34:29;;;;;;;1.45;0.70;;;4.40;99.70;;;;;;5056658;28;20079;-88
2022/03/11 02:36:54;;;;;;;4.30;1.80;;;4.40;99.90;;;;;;5040091;28;20516;-87
2022/03/11 02:39:20;;;;;;;9.15;2.90;;;4.40;99.90;;;;;;5039984;28;20555;-87
2022/03/11 02:41:49;;;;;;;5.82;2.63;;;4.40;99.90;;;;;;5039809;28;20405;-88
2022/03/11 02:44:15;;;;;;;4.47;2.63;;;4.80;99.90;;;;;;5090112;28;20441;-87
2022/03/11 02:46:41;;;;;;;6.63;3.20;;;4.40;99.90;;;;;;5073095;28;20069;-87
2022/03/11 02:49:06;;;;;;;10.18;3.50;;;4.40;99.90;;;;;;5039454;28;20107;-87
2022/03/11 02:51:32;;;;;;;5.47;2.17;;;4.40;99.90;;;;;;5056388;28;20068;-87
2022/03/11 02:53:58;;;;;;;6.63;2.88;;;4.40;99.90;;;;;;5039305;28;20033;-87
2022/03/11 02:56:23;;;;;;;3.15;1.42;;;4.30;99.90;;;;;;5039265;28;20413;-88
2022/03/11 02:58:49;;;;;;;9.00;4.00;;;4.30;99.90;;;;;;5056323;28;20525;-88
2022/03/11 03:01:14;;;;;;;4.78;2.55;;;4.30;99.90;;;;;;5039525;28;20037;-87
2022/03/11 03:03:40;;;;;;;4.45;2.95;;;4.30;99.90;;;;;;5039281;28;20195;-88
2022/03/11 03:06:06;;;;;;;3.80;2.42;;;4.30;99.90;;;;;;5038764;28;20048;-87
2022/03/11 03:08:32;;;;;;;10.63;3.90;;;4.20;99.90;;;;;;5039225;28;20037;-88
2022/03/11 03:10:58;;;;;;;13.00;4.30;;;4.20;99.90;;;;;;5039388;28;20227;-87
2022/03/11 03:13:24;;;;;;;5.00;4.50;;;4.20;99.90;;;;;;5073059;28;20528;-87
2022/03/11 03:15:49;;;;;;;1.10;0.85;;;4.30;99.90;;;;;;5039426;28;20037;-88
2022/03/11 03:18:15;;;;;;;10.45;3.40;;;4.20;99.90;;;;;;5039197;28;20044;-87
2022/03/11 03:20:42;;;;;;;3.70;2.17;;;4.20;99.90;;;;;;5039199;28;20533;-87
2022/03/11 03:23:07;;;;;;;1.92;1.40;;;4.20;99.90;;;;;;5039014;28;20040;-87
2022/03/11 03:25:34;;;;;;;1.73;1.52;;;4.20;99.90;;;;;;5038900;28;20041;-87
2022/03/11 03:27:59;;;;;;;1.67;1.02;;;4.20;99.90;;;;;;5037998;28;20528;-87
2022/03/11 03:30:25;;;;;;;3.53;2.47;;;4.00;99.90;;;;;;5038546;28;20037;-87
2022/03/11 03:32:50;;;;;;;1.63;1.15;;;4.10;99.90;;;;;;5038897;28;20100;-87
2022/03/11 03:35:16;;;;;;;5.63;2.95;;;4.00;99.90;;;;;;5038111;28;20521;-87
2022/03/11 03:37:41;;;;;;;3.78;2.33;;;4.00;99.90;;;;;;5038359;28;20076;-88
2022/03/11 03:40:08;;;;;;;4.57;3.60;;;4.10;99.90;;;;;;5038426;28;20128;-87
2022/03/11 03:42:34;;;;;;;5.47;1.83;;;4.00;99.90;;;;;;5071692;28;20045;-87
2022/03/11 03:45:00;;;;;;;2.92;1.20;;;4.00;99.90;;;;;;5038368;28;20074;-88
2022/03/11 03:47:25;;;;;;;1.80;1.00;;;4.00;99.90;;;;;;5038556;28;20037;-87
2022/03/11 03:49:51;;;;;;;8.43;2.92;;;4.00;99.90;;;;;;5070927;28;20037;-87
2022/03/11 03:52:17;;;;;;;2.55;1.17;;;3.90;99.90;;;;;;5088646;28;20128;-87
2022/03/11 03:54:44;;;;;;;7.93;3.50;;;3.90;99.90;;;;;;5071603;28;20097;-87
2022/03/11 03:57:10;;;;;;;4.97;2.83;;;3.90;99.90;;;;;;5088307;28;20048;-87
2022/03/11 03:59:37;;;;;;;6.00;3.10;;;3.80;99.90;;;;;;5038036;28;20502;-87
2022/03/11 04:02:03;;;;;;;0.60;0.60;;;3.90;99.90;;;;;;5038161;28;20051;-87
2022/03/11 04:04:29;;;;;;;2.50;2.03;;;3.90;99.90;;;;;;5038024;28;20394;-87
2022/03/11 04:06:54;;;;;;;4.82;2.70;;;3.80;99.90;;;;;;5037982;28;20040;-87
2022/03/11 04:09:20;;;;;;;5.40;2.45;;;3.80;99.90;;;;;;5038715;28;20033;-88
2022/03/11 04:11:46;;;;;;;5.55;2.65;;;3.80;99.90;;;;;;5038390;28;20037;-87
2022/03/11 04:14:11;;;;;;;7.38;3.83;;;3.80;99.90;;;;;;5055242;28;20379;-88
2022/03/11 04:16:37;;;;;;;7.80;4.40;;;3.80;99.90;;;;;;5038153;28;20051;-87
2022/03/11 04:19:03;;;;;;;13.63;5.82;;;3.80;99.90;;;;;;5054879;28;20072;-86
2022/03/11 04:21:29;;;;;;;4.70;3.28;;;3.80;99.90;;;;;;5038119;28;20033;-87
2022/03/11 04:23:54;;;;;;;1.80;1.38;;;3.80;99.90;;;;;;5071365;28;20100;-87
2022/03/11 04:26:20;;;;;;;4.45;2.53;;;3.80;99.90;;;;;;5037836;28;20049;-87
2022/03/11 04:28:46;;;;;;;8.32;4.45;;;3.70;99.90;;;;;;5055007;28;20482;-87
2022/03/11 04:31:12;;;;;;;6.18;2.60;;;3.70;99.90;;;;;;5054806;28;20448;-87
2022/03/11 04:33:39;;;;;;;6.40;3.28;;;3.70;99.90;;;;;;5038186;28;20160;-87
2022/03/11 04:36:06;;;;;;;25.92;4.60;;;3.70;99.90;;;;;;5071112;28;20120;-87
2022/03/11 04:38:32;;;;;;;6.57;5.78;;;3.70;99.90;;;;;;5071718;28;20041;-88
2022/03/11 04:40:58;;;;;;;2.50;1.73;;;3.60;99.90;;;;;;5075172;28;20497;-87
2022/03/11 04:43:24;;;;;;;3.05;1.75;;;3.70;99.90;;;;;;5058296;28;20123;-87
2022/03/11 04:45:50;;;;;;;1.75;1.58;;;3.60;99.90;;;;;;5091970;28;20037;-87
2022/03/11 04:48:15;;;;;;;4.38;2.38;;;3.60;99.90;;;;;;5041681;28;20091;-87
2022/03/11 04:50:41;;;;;;;1.75;1.33;;;3.60;99.90;;;;;;5041588;28;20516;-87
2022/03/11 04:53:07;;;;;;;15.20;3.33;;;3.60;99.90;;;;;;5041713;28;20090;-87
2022/03/11 04:55:33;;;;;;;2.72;1.77;;;3.50;99.90;;;;;;5041780;28;20037;-87
2022/03/11 04:57:59;;;;;;;8.27;4.07;;;3.50;99.90;;;;;;5041583;28;20674;-87
2022/03/11 05:00:25;;;;;;;5.30;2.88;;;3.50;99.90;;;;;;5057670;28;20047;-87
2022/03/11 05:02:52;;;;;;;3.72;2.45;;;3.50;99.90;;;;;;5030458;28;20041;-87
2022/03/11 05:05:18;;;;;;;6.00;2.38;;;3.50;99.90;;;;;;5055081;28;20038;-87
2022/03/11 05:07:43;;;;;;;4.10;1.98;;;3.50;99.90;;;;;;5071667;28;20048;-87
2022/03/11 05:10:11;;;;;;;1.90;1.50;;;3.40;99.90;;;;;;5053875;28;20059;-88
2022/03/11 05:12:38;;;;;;;11.30;5.70;;;3.40;99.90;;;;;;5074318;28;20129;-87
2022/03/11 05:15:05;;;;;;;13.00;5.13;;;3.50;99.90;;;;;;5094527;28;20401;-87
2022/03/11 05:17:31;;;;;;;5.25;2.65;;;3.40;99.90;;;;;;5060252;28;20037;-87
2022/03/11 05:19:59;;;;;;;3.00;2.40;;;3.50;99.90;;;;;;5077505;28;20094;-87
2022/03/11 05:22:25;;;;;;;2.80;1.73;;;3.40;99.90;;;;;;5060893;28;20036;-87
2022/03/11 05:24:51;;;;;;;5.32;2.70;;;3.30;99.90;;;;;;5042406;28;20094;-87
2022/03/11 05:27:16;;;;;;;7.15;2.55;;;3.30;99.90;;;;;;5054168;28;20447;-88
2022/03/11 05:29:42;;;;;;;7.60;2.92;;;3.30;99.90;;;;;;5056669;28;20112;-87
2022/03/11 05:32:08;;;;;;;9.93;2.15;;;3.20;99.90;;;;;;5052757;28;20100;-88
2022/03/11 05:34:34;;;;;;;3.22;2.00;;;3.30;99.90;;;;;;5077435;28;20040;-87
2022/03/11 05:37:00;;;;;;;5.85;2.70;;;3.30;99.90;;;;;;5060503;28;20041;-87
2022/03/11 05:39:26;;;;;;;7.38;1.75;;;3.30;99.90;;;;;;5060643;28;20102;-87
2022/03/11 05:41:52;;;;;;;10.63;4.53;;;3.30;99.90;;;;;;5050684;28;20045;-87
2022/03/11 05:44:20;;;;;;;3.33;1.70;;;3.20;99.90;;;;;;5036084;28;20037;-87
2022/03/11 05:46:47;;;;;;;6.13;3.70;;;3.20;99.90;;;;;;5059373;28;20044;-87
2022/03/11 05:49:13;;;;;;;11.18;4.63;;;4.10;99.90;;;;;;5064687;28;20033;-88
2022/03/11 05:51:39;;;;;;;4.13;2.45;;;3.30;99.90;;;;;;5105967;28;20029;-87
2022/03/11 05:54:05;;;;;;;1.13;1.02;;;3.20;99.90;;;;;;5068645;28;20482;-87
2022/03/11 05:56:31;;;;;;;10.90;5.38;;;3.10;99.90;;;;;;5081002;28;20040;-87
2022/03/11 05:58:57;;;;;;;7.15;3.85;;;3.20;99.90;;;;;;5074339;28;20043;-86
2022/03/11 06:01:23;;;;;;;3.28;1.95;;;3.10;99.90;;;;;;5040499;28;20064;-87
2022/03/11 06:03:48;;;;;;;3.00;2.15;;;3.10;99.90;;;;;;5046298;28;20068;-87
2022/03/11 06:06:15;;;;;;;4.95;3.42;;;3.10;99.90;;;;;;5055176;28;20414;-87
2022/03/11 06:08:41;;;;;;;9.20;3.58;;;3.10;99.90;;;;;;5041057;28;20452;-86
2022/03/11 06:11:08;;;;;;;4.78;2.75;;;3.00;99.90;;;;;;5077112;28;20036;-86
2022/03/11 06:13:35;;;;;;;5.10;3.38;;;3.10;99.90;;;;;;5060394;28;20040;-86
2022/03/11 06:16:01;;;;;;;6.32;3.83;;;3.10;99.90;;;;;;5060555;28;20473;-87
2022/03/11 06:18:27;;;;;;;8.55;5.03;;;3.20;99.90;;;;;;5049393;28;20076;-86
2022/03/11 06:20:52;;;;;;;13.55;5.57;;;3.10;99.90;;;;;;5054955;28;20036;-86
2022/03/11 06:23:18;;;;;;;7.47;3.65;;;3.20;99.90;;;;;;5060717;28;20029;-86
2022/03/11 06:25:44;;;;;;;5.57;2.70;;;3.10;99.90;;;;;;5059904;28;20044;-86
2022/03/11 06:28:09;;;;;;;19.23;5.65;;;3.10;99.90;;;;;;5059766;28;20086;-86
2022/03/11 06:30:38;;;;;;;10.88;5.90;;;3.10;99.90;;;;;;5060868;28;20405;-86
2022/03/11 06:33:03;;;;;;;2.80;2.13;;;3.10;99.90;;;;;;5060422;28;20040;-87
2022/03/11 06:35:29;;;;;;;8.65;5.43;;;3.20;99.90;;;;;;5060023;28;20041;-87
2022/03/11 06:37:54;;;;;;;12.52;5.45;;;3.20;99.90;;;;;;5057357;28;20052;-87
2022/03/11 06:40:21;;;;;;;12.23;6.63;;;3.30;99.90;;;;;;5040213;28;20045;-87
2022/03/11 06:42:49;;;;;;;9.90;4.20;;;3.20;99.90;;;;;;5047970;28;20051;-87
2022/03/11 06:45:16;;;;;;;6.88;4.22;;;3.30;99.90;;;;;;5053727;28;20040;-87
2022/03/11 06:47:42;;;;;;;5.13;2.70;;;3.30;99.90;;;;;;5059449;28;20123;-87
2022/03/11 06:50:09;;;;;;;7.78;2.28;;;3.30;99.90;;;;;;5059666;28;20522;-87
2022/03/11 06:52:35;;;;;;;5.95;3.28;;;3.30;99.90;;;;;;5060117;28;20036;-87
2022/03/11 06:55:01;;;;;;;2.75;1.88;;;3.30;99.90;;;;;;5053552;28;20052;-87
2022/03/11 06:57:28;;;;;;;2.22;1.65;;;3.30;99.90;;;;;;5071445;28;20040;-87
2022/03/11 06:59:55;;;;;;;1.20;1.10;;;3.40;99.90;;;;;;5058187;28;20487;-87
2022/03/11 07:02:37;;;;;;;11.90;6.28;;;3.40;99.90;;;;;;5066911;28;20069;-87
2022/03/11 07:05:03;;;;;;;4.25;2.22;;;3.40;99.90;;;;;;5028748;28;20124;-88
2022/03/11 07:07:30;;;;;;;6.38;3.85;;;3.50;99.90;;;;;;5059004;28;20068;-88
2022/03/11 07:09:56;;;;;;;4.75;2.78;;;3.50;99.90;;;;;;5048285;28;20043;-87
2022/03/11 07:12:22;;;;;;;3.78;1.98;;;3.60;99.90;;;;;;5040148;28;20119;-87
2022/03/11 07:14:48;;;;;;;5.93;3.60;;;3.60;99.90;;;;;;5039611;28;20100;-87
2022/03/11 07:17:14;;;;;;;9.10;5.05;;;3.60;99.90;;;;;;5038854;28;20053;-86
2022/03/11 07:19:40;;;;;;;12.90;6.22;;;3.70;99.90;;;;;;5038990;28;20054;-87
2022/03/11 07:22:06;;;;;;;4.95;2.90;;;3.80;99.90;;;;;;5048106;28;20041;-87
2022/03/11 07:24:32;;;;;;;13.75;6.47;;;4.10;99.90;;;;;;5059219;28;20043;-87
2022/03/11 07:26:58;;;;;;;10.55;5.72;;;3.90;99.90;;;;;;5058807;28;20040;-87
2022/03/11 07:29:24;;;;;;;1.88;1.30;;;3.90;99.90;;;;;;5052470;28;20554;-87
2022/03/11 07:31:49;;;;;;;3.78;2.13;;;4.00;99.90;;;;;;5051120;28;20036;-87
2022/03/11 07:34:16;;;;;;;7.15;3.88;;;4.00;99.90;;;;;;5046756;28;20068;-87
2022/03/11 07:36:43;;;;;;;7.38;3.90;;;4.10;99.90;;;;;;5054747;28;20032;-87
2022/03/11 07:39:10;;;;;;;5.45;3.08;;;4.10;99.90;;;;;;5086266;28;20040;-87
2022/03/11 07:41:36;;;;;;;6.05;2.45;;;4.20;99.90;;;;;;5044707;28;20059;-87
2022/03/11 07:44:02;;;;;;;2.00;1.48;;;4.30;99.90;;;;;;5046868;28;20135;-87
2022/03/11 07:46:29;;;;;;;3.25;2.33;;;4.30;99.90;;;;;;5039670;28;20090;-85
2022/03/11 07:48:56;;;;;;;7.03;2.50;;;4.40;99.90;;;;;;5038830;28;20037;-86
2022/03/11 07:51:22;;;;;;;4.72;3.38;;;4.50;99.90;;;;;;5040241;28;20120;-87
2022/03/11 07:53:48;;;;;;;1.42;1.08;;;4.50;99.90;;;;;;5063178;28;20071;-87
2022/03/11 07:56:15;;;;;;;2.33;1.25;;;4.70;99.90;;;;;;5056165;28;20045;-87
2022/03/11 07:58:41;;;;;;;5.90;2.88;;;4.80;99.90;;;;;;5039853;28;20033;-87
2022/03/11 08:01:12;;;;;;;3.45;2.17;;;4.80;99.90;;;;;;5077673;28;20037;-87
2022/03/11 08:03:40;;;;;;;4.07;2.92;;;4.90;99.90;;;;;;5055701;28;20060;-87
2022/03/11 08:06:08;;;;;;;7.45;4.03;;;5.00;99.90;;;;;;5042520;28;20040;-87
2022/03/11 08:08:37;;;;;;;6.00;2.63;;;5.10;99.90;;;;;;5052775;28;20540;-87
2022/03/11 08:11:04;;;;;;;9.57;3.85;;;5.20;99.90;;;;;;5045326;28;20033;-88
2022/03/11 08:13:30;;;;;;;4.13;3.08;;;5.20;99.90;;;;;;5050941;28;20036;-88
2022/03/11 08:15:55;;;;;;;12.68;6.72;;;5.30;99.90;;;;;;5047486;28;20032;-87
2022/03/11 08:18:22;;;;;;;2.10;1.67;;;5.40;99.90;;;;;;5051031;28;20050;-87
2022/03/11 08:20:48;;;;;;;5.40;2.45;;;5.50;99.90;;;;;;5055031;28;20047;-86
2022/03/11 08:23:14;;;;;;;12.27;4.05;;;5.60;99.90;;;;;;5057934;28;20036;-87
2022/03/11 08:25:40;;;;;;;11.32;5.25;;;5.60;99.90;;;;;;5039494;28;20029;-88
2022/03/11 08:28:10;;;;;;;3.03;1.63;;;5.70;99.90;;;;;;5039295;28;20045;-87
2022/03/11 08:30:39;;;;;;;2.50;1.50;;;5.80;99.90;;;;;;5040310;28;20122;-87
2022/03/11 08:33:05;;;;;;;17.17;8.50;;;5.90;99.90;;;;;;5039198;28;20440;-87
2022/03/11 08:35:31;;;;;;;7.35;4.32;;;5.90;99.90;;;;;;5052169;28;20059;-87
2022/03/11 08:37:57;;;;;;;10.60;5.15;;;6.00;99.90;;;;;;5043706;28;20393;-87
2022/03/11 08:40:24;;;;;;;8.13;4.15;;;6.10;99.90;;;;;;5059269;28;20049;-87
2022/03/11 08:42:53;;;;;;;1.45;1.33;;;6.20;99.90;;;;;;5052918;28;20073;-88
2022/03/11 08:45:21;;;;;;;2.95;1.83;;;6.20;99.90;;;;;;5043841;28;20387;-87
2022/03/11 08:47:47;;;;;;;4.70;2.95;;;6.30;99.90;;;;;;5039028;28;20048;-86
2022/03/11 08:50:14;;;;;;;2.65;1.92;;;6.40;99.90;;;;;;5046943;28;20526;-87
2022/03/11 08:52:40;;;;;;;2.78;2.20;;;6.50;99.90;;;;;;5039349;28;20063;-87
2022/03/11 08:55:06;;;;;;;1.52;1.13;;;6.50;99.90;;;;;;5039917;28;20481;-88
2022/03/11 08:57:32;;;;;;;3.08;2.38;;;6.60;99.90;;;;;;5056213;28;20041;-87
2022/03/11 08:59:57;;;;;;;13.27;6.63;;;6.70;99.90;;;;;;5039491;28;20044;-87
2022/03/11 09:02:23;;;;;;;4.75;2.55;;;6.80;99.90;;;;;;5039212;28;20477;-87
2022/03/11 09:05:02;;;;;;;2.20;1.88;;;6.90;99.90;;;;;;5041898;28;20044;-87
2022/03/11 09:07:29;;;;;;;6.55;4.40;;;7.00;99.90;;;;;;5055117;28;20063;-87
2022/03/11 09:09:55;;;;;;;3.97;2.65;;;7.10;99.90;;;;;;5039661;28;20112;-87
2022/03/11 09:12:21;;;;;;;3.03;1.88;;;7.10;99.90;;;;;;5087980;28;20041;-87
2022/03/11 09:14:46;;;;;;;2.08;1.30;;;7.20;99.90;;;;;;5059246;28;20036;-88
2022/03/11 09:17:12;;;;;;;7.47;3.83;;;7.20;99.90;;;;;;5039935;28;20405;-87
2022/03/11 09:19:38;;;;;;;1.85;1.40;;;7.30;99.90;;;;;;5055468;28;20038;-87
2022/03/11 09:22:03;;;;;;;3.47;2.65;;;7.40;99.90;;;;;;5022726;28;20045;-87
2022/03/11 09:24:29;;;;;;;7.68;4.32;;;7.50;99.90;;;;;;5051507;28;20119;-87
2022/03/11 09:26:55;;;;;;;2.80;2.13;;;7.50;99.90;;;;;;5061527;28;20044;-88
2022/03/11 09:29:23;;;;;;;4.30;2.45;;;7.60;99.90;;;;;;5042943;28;20494;-87
2022/03/11 09:31:48;;;;;;;4.07;2.38;;;7.60;99.90;;;;;;5045738;28;20119;-87
2022/03/11 09:34:14;;;;;;;3.75;2.28;;;7.70;99.90;;;;;;5053917;28;20071;-87
2022/03/11 09:36:39;;;;;;;3.83;2.03;;;7.80;99.90;;;;;;5042323;28;20037;-88
2022/03/11 09:39:05;;;;;;;5.20;3.13;;;9.00;99.90;;;;;;5042468;28;20041;-88
2022/03/11 09:41:31;;;;;;;7.35;3.97;;;8.00;99.90;;;;;;5041923;28;20041;-87
2022/03/11 09:43:57;;;;;;;1.35;1.25;;;7.30;99.70;;;;;;5046570;28;20039;-87
2022/03/11 09:46:25;;;;;;;21.75;5.80;;;8.20;99.60;;;;;;5048496;28;20068;-87
2022/03/11 09:48:51;;;;;;;9.50;3.85;;;8.30;99.90;;;;;;5056889;28;20079;-87
2022/03/11 09:51:17;;;;;;;5.75;3.97;;;8.50;99.30;;;;;;5052811;28;20060;-87
2022/03/11 09:53:43;;;;;;;5.55;3.47;;;8.40;98.80;;;;;;5061662;28;20037;-87
2022/03/11 09:56:09;;;;;;;8.15;3.30;;;8.50;97.00;;;;;;5061980;28;20044;-87
2022/03/11 09:58:35;;;;;;;4.72;3.10;;;8.60;98.00;;;;;;5061854;28;20374;-87
2022/03/11 10:01:00;;;;;;;5.70;2.67;;;8.70;97.00;;;;;;5061203;28;20032;-87
2022/03/11 10:03:29;;;;;;;2.45;1.35;;;8.70;97.30;;;;;;5061641;28;20033;-88
2022/03/11 10:05:55;;;;;;;6.68;3.10;;;8.80;97.00;;;;;;5051160;28;20486;-87
2022/03/11 10:08:36;;;;;;;5.18;2.83;;;8.80;96.60;;;;;;5043754;28;20040;-87
2022/03/11 10:11:23;;;;;;;10.18;2.83;;;8.90;97.10;;;;;;5088921;28;20042;-88
2022/03/11 10:13:50;;;;;;;2.15;1.15;;;9.00;96.50;;;;;;5061090;28;20104;-87
2022/03/11 10:16:21;;;;;;;4.03;2.10;;;9.10;96.60;;;;;;5061079;28;20041;-87
2022/03/11 10:19:06;;;;;;;10.43;4.85;;;9.20;96.40;;;;;;5046239;28;20045;-88
2022/03/11 10:21:40;;;;;;;8.52;4.70;;;9.20;95.30;;;;;;5082614;28;20047;-87
2022/03/11 10:24:08;;;;;;;4.82;2.65;;;9.20;95.00;;;;;;5060390;28;20512;-87
2022/03/11 10:26:41;;;;;;;7.25;3.78;;;9.20;95.40;;;;;;5083692;28;20090;-87
2022/03/11 10:29:10;;;;;;;11.20;5.00;;;9.20;95.00;;;;;;5043154;28;20041;-88
2022/03/11 10:31:43;;;;;;;4.85;2.97;;;9.30;94.30;;;;;;5040873;28;20040;-87
2022/03/11 10:34:33;;;;;;;4.70;2.78;;;9.30;93.90;;;;;;5041149;28;20128;-87
2022/03/11 10:37:08;;;;;;;2.55;1.40;;;9.40;93.90;;;;;;5040991;28;20470;-87
2022/03/11 10:39:45;;;;;;;2.38;1.80;;;9.80;94.80;;;;;;5041175;28;20051;-88
2022/03/11 10:42:20;;;;;;;2.95;1.90;;;9.60;94.70;;;;;;5046866;28;20047;-87
2022/03/11 10:44:56;;;;;;;2.60;1.50;;;9.60;94.90;;;;;;5045876;28;20041;-86
2022/03/11 10:47:29;;;;;;;7.68;3.28;;;9.70;94.50;;;;;;5040333;28;20505;-87
2022/03/11 10:49:57;;;;;;;4.38;3.00;;;9.70;94.30;;;;;;5041229;28;20087;-87
2022/03/11 10:52:34;;;;;;;4.38;2.67;;;9.80;94.50;;;;;;5040330;28;20044;-88
2022/03/11 10:55:15;;;;;;;7.32;3.28;;;9.80;93.30;;;;;;5049172;28;20065;-88
2022/03/11 10:57:41;;;;;;;6.80;3.75;;;9.90;93.90;;;;;;5055384;28;20087;-88
2022/03/11 11:00:27;;;;;;;7.43;4.20;;;10.00;93.10;;;;;;5044578;28;20060;-88
2022/03/11 11:02:54;;;;;;;10.30;3.10;;;10.00;92.80;;;;;;5061810;28;20087;-88
2022/03/11 11:05:21;;;;;;;9.90;2.40;;;10.00;93.10;;;;;;5061154;28;20070;-88
2022/03/11 11:07:48;;;;;;;7.22;4.10;;;10.20;93.70;;;;;;5056551;28;20047;-88
2022/03/11 11:10:18;;;;;;;14.13;5.90;;;10.30;93.80;;;;;;5060690;28;20469;-88
2022/03/11 11:12:45;;;;;;;2.88;1.75;;;10.20;93.00;;;;;;5060730;28;20028;-88
2022/03/11 11:15:11;;;;;;;3.10;2.22;;;10.30;93.60;;;;;;5041331;28;20033;-88
2022/03/11 11:17:41;;;;;;;6.72;3.90;;;10.60;92.70;;;;;;5023873;28;20059;-88
2022/03/11 11:20:33;;;;;;;6.70;4.00;;;10.10;92.00;;;;;;5024819;28;20040;-87
2022/03/11 11:23:03;;;;;;;3.80;2.90;;;10.30;92.00;;;;;;5028454;28;20037;-88
2022/03/11 11:25:29;;;;;;;6.07;2.67;;;10.40;92.30;;;;;;5024087;28;20037;-88
2022/03/11 11:27:57;;;;;;;7.15;5.05;;;10.50;92.00;;;;;;5023714;28;20037;-87
2022/03/11 11:30:24;;;;;;;15.07;4.35;;;10.50;91.60;;;;;;5031988;28;20071;-88
2022/03/11 11:32:55;;;;;;;5.38;2.10;;;10.60;93.10;;;;;;5037765;28;20037;-87
2022/03/11 11:35:32;;;;;;;1.65;1.33;;;10.60;92.50;;;;;;5035940;28;20024;-88
2022/03/11 11:38:00;;;;;;;6.65;3.15;;;10.80;92.20;;;;;;5031969;28;20045;-88
2022/03/11 11:40:37;;;;;;;5.30;2.88;;;10.80;91.40;;;;;;5025521;28;20048;-88
2022/03/11 11:43:15;;;;;;;6.80;3.88;;;10.80;91.50;;;;;;5037616;28;20435;-88
2022/03/11 11:45:47;;;;;;;1.45;1.10;;;10.90;91.60;;;;;;5060016;28;20043;-87
2022/03/11 11:48:45;;;;;;;5.28;2.75;;;11.00;91.70;;;;;;5040450;28;20486;-88
2022/03/11 11:51:21;;;;;;;5.38;2.72;;;11.10;91.80;;;;;;5044135;28;20040;-87
2022/03/11 11:53:52;;;;;;;5.57;3.65;;;11.20;91.30;;;;;;5044203;28;20039;-88
2022/03/11 11:56:31;;;;;;;6.65;3.03;;;11.20;91.00;;;;;;5055968;28;20032;-88
2022/03/11 11:59:24;;;;;;;11.65;3.78;;;11.20;90.90;;;;;;5036879;28;20422;-87
2022/03/11 12:02:01;;;;;;;1.00;0.98;;;11.20;90.40;;;;;;5027876;28;20512;-88
2022/03/11 12:04:37;;;;;;;7.85;3.25;;;11.30;91.30;;;;;;5027042;28;20040;-88
2022/03/11 12:07:10;;;;;;;5.15;2.75;;;11.40;90.80;;;;;;5032827;28;20105;-88
2022/03/11 12:09:39;;;;;;;3.33;1.95;;;11.40;90.90;;;;;;5043397;28;20032;-88
2022/03/11 12:15:15;;;;;;;6.85;3.97;;;11.50;90.80;;;;;;5040122;28;20037;-88
2022/03/11 12:17:55;;;;;;;14.68;7.63;;;11.50;91.30;;;;;;5039234;28;20071;-88
2022/03/11 12:20:46;;;;;;;3.63;1.73;;;11.40;90.40;;;;;;5039612;28;20397;-88
2022/03/11 12:23:14;;;;;;;16.55;5.70;;;11.60;90.90;;;;;;5043984;28;20489;-88
2022/03/11 12:25:57;;;;;;;6.72;3.33;;;11.60;90.00;;;;;;5060249;28;20037;-88
2022/03/11 12:28:29;;;;;;;4.45;2.75;;;11.60;90.20;;;;;;5042867;28;20047;-88
2022/03/11 12:31:05;;;;;;;2.85;1.73;;;11.60;90.60;;;;;;5043298;28;20032;-88
2022/03/11 12:33:40;;;;;;;6.55;3.42;;;11.70;91.10;;;;;;5035667;28;20071;-88
2022/03/11 12:36:08;;;;;;;3.63;2.30;;;11.90;90.80;;;;;;5032202;28;20036;-88
2022/03/11 12:38:37;;;;;;;6.80;3.88;;;11.80;89.50;;;;;;5042364;28;20032;-87
2022/03/11 12:41:10;;;;;;;2.38;1.52;;;11.80;89.80;;;;;;5026535;28;20028;-87
2022/03/11 12:43:37;;;;;;;9.52;4.10;;;11.80;90.00;;;;;;5038116;28;20047;-88
2022/03/11 12:46:04;;;;;;;4.57;2.65;;;11.80;90.10;;;;;;5043436;28;20128;-88
2022/03/11 12:48:36;;;;;;;7.85;4.25;;;11.70;90.20;;;;;;5043880;28;20082;-89
2022/03/11 12:51:07;;;;;;;8.57;4.80;;;11.70;90.30;;;;;;5028369;28;20115;-89
2022/03/11 12:53:36;;;;;;;7.93;1.70;;;11.70;90.00;;;;;;5024110;28;20037;-89
2022/03/11 12:56:02;;;;;;;2.67;1.55;;;11.80;91.20;;;;;;5023346;28;20037;-88
2022/03/11 12:58:31;;;;;;;7.22;4.30;;;11.90;90.20;;;;;;5024240;28;20101;-89
2022/03/11 13:01:05;;;;;;;4.35;2.53;;;12.00;90.20;;;;;;5026785;28;20080;-89